Latest Weather Observations for Marree Airport

IDS60801

Issued at 8:05 pm CST Wednesday 27 August 2014 (issued every 30 minutes, with the page automatically refreshed every 10 minutes)

About weather observations | Map of weather stations | Latest weather observations for SA | Other Formats
Station Details ID: 017126 Name: MARREE AERO Lat: -29.66 Lon: 138.07 Height: 50.0 m
Data from the previous 72 hours. | See also: Recent months for locations in South Australia
Date/Time
CST
Temp
°C
App
Temp
°C
Dew
Point
Rel
Hum
%
Delta-T
°C
Wind Press
QNH
hPa
Press
MSL
hPa
Rain
since 9 am
mm
Dir
 
Spd
km/h
Gust
km/h
Spd
kts
Gust
kts
27/08:00pm 16.7 12.1 1.6 36 6.7 SSE 15 19 8 10 1025.3 - 0.0
27/07:30pm 17.8 14.0 1.7 34 7.2 S 11 13 6 7 1024.8 - 0.0
27/07:00pm 19.5 16.5 1.9 31 8.1 S 7 9 4 5 1024.3 - 0.0
27/06:30pm 20.6 17.5 1.5 28 8.8 S 7 7 4 4 1024.0 - 0.0
27/06:00pm 21.7 18.6 1.4 26 9.3 S 7 9 4 5 1023.8 1023.8 0.0
27/05:30pm 23.0 19.4 0.8 23 10.2 S 9 11 5 6 1023.6 - 0.0
27/05:00pm 23.5 20.2 -0.1 21 10.7 SE 7 15 4 8 1023.5 - 0.0
27/04:30pm 23.5 19.0 -0.1 21 10.7 SE 13 19 7 10 1023.4 - 0.0
27/04:00pm 23.5 19.0 -0.1 21 10.7 SE 13 20 7 11 1023.3 - 0.0
27/03:30pm 24.0 18.8 0.4 21 10.9 S 17 26 9 14 1023.3 - 0.0
27/03:00pm 23.4 18.2 -0.1 21 10.6 SE 17 24 9 13 1023.3 1023.3 0.0
27/02:30pm 23.2 18.8 0.3 22 10.5 ESE 13 20 7 11 1023.5 - 0.0
27/02:00pm 23.4 19.1 1.1 23 10.4 S 13 20 7 11 1023.8 - 0.0
27/01:30pm 22.9 18.6 0.7 23 10.2 S 13 26 7 14 1024.1 - 0.0
27/01:00pm 22.4 17.1 2.0 26 9.6 SW 19 22 10 12 1024.6 - 0.0
27/12:30pm 22.7 19.1 2.8 27 9.5 SSE 11 26 6 14 1025.0 - 0.0
27/12:00pm 21.3 17.6 2.6 29 8.8 SE 11 20 6 11 1025.6 1025.6 0.0
27/11:30am 21.1 18.0 3.8 32 8.3 ENE 9 15 5 8 1026.0 - 0.0
27/11:00am 20.4 16.9 3.6 33 8.0 ENE 11 20 6 11 1026.3 - 0.0
27/10:30am 19.7 15.5 3.8 35 7.6 ENE 15 20 8 11 1026.6 - 0.0
27/10:00am 19.0 15.8 3.2 35 7.4 E 9 13 5 7 1026.6 - 0.0
27/09:30am 17.9 14.7 3.0 37 6.9 SE 9 11 5 6 1026.6 - 0.0
27/09:00am 16.5 12.9 2.9 40 6.2 - 11 13 6 7 1026.7 1026.7 0.0
27/08:30am 13.9 10.6 2.5 46 5.0 S 9 11 5 6 1026.5 - 0.0
27/08:00am 10.7 7.2 1.3 52 3.9 SSE 9 11 5 6 1026.1 - 0.0
27/07:30am 9.1 6.0 1.5 59 3.1 SE 7 9 4 5 1025.6 - 0.0
27/07:00am 6.6 3.4 0.5 65 2.4 S 7 9 4 5 1025.2 - 0.0
27/06:30am 6.3 2.3 0.2 65 2.4 SE 11 13 6 7 1024.8 - 0.0
27/06:00am 6.4 2.4 0.3 65 2.4 SSE 11 13 6 7 1024.5 1024.5 0.0
27/05:30am 6.8 4.9 0.3 63 2.5 CALM 0 0 0 0 1024.3 - 0.0
27/05:00am 7.7 4.5 0.9 62 2.7 S 7 9 4 5 1024.2 - 0.0
27/04:30am 7.9 4.8 1.1 62 2.7 S 7 11 4 6 1024.0 - 0.0
27/04:00am 7.5 2.7 0.3 60 2.8 SSE 15 15 8 8 1023.8 - 0.0
27/03:30am 9.0 4.4 1.4 59 3.1 SSE 15 15 8 8 1023.7 - 0.0
27/03:00am 9.5 5.3 1.4 57 3.3 SSE 13 15 7 8 1024.0 1024.0 0.0
27/02:30am 9.2 4.9 1.1 57 3.3 SSE 13 15 7 8 1024.1 - 0.0
27/02:00am 10.5 7.1 1.6 54 3.7 SSE 9 11 5 6 1024.1 - 0.0
27/01:30am 9.8 6.3 1.2 55 3.6 SE 9 9 5 5 1024.1 - 0.0
27/01:00am 10.0 6.5 1.1 54 3.7 SE 9 11 5 6 1024.2 - 0.0
27/12:30am 10.7 7.8 1.5 53 3.9 ESE 6 7 3 4 1024.3 - 0.0
27/12:00am 11.9 9.0 1.5 49 4.4 ENE 6 7 3 4 1024.5 1024.5 0.0
 
Date/Time
CST
Temp
°C
App
Temp
°C
Dew
Point
Rel
Hum
%
Delta-T
°C
Wind Press
QNH
hPa
Press
MSL
hPa
Rain
since 9 am
mm
Dir
 
Spd
km/h
Gust
km/h
Spd
kts
Gust
kts
26/11:30pm 12.0 8.9 1.3 48 4.5 ENE 7 9 4 5 1024.6 - 0.0
26/11:00pm 12.4 9.0 1.7 48 4.6 ENE 9 13 5 7 1024.7 - 0.0
26/10:30pm 13.2 8.2 1.5 45 5.0 E 17 22 9 12 1024.6 - 0.0
26/10:00pm 14.3 10.8 1.2 41 5.7 S 9 11 5 6 1024.3 - 0.0
26/09:30pm 14.4 10.9 1.0 40 5.8 S 9 11 5 6 1024.2 - 0.0
26/09:00pm 15.6 11.0 1.3 38 6.2 S 15 17 8 9 1024.1 1024.1 0.0
26/08:30pm 16.5 11.4 1.0 35 6.8 S 17 17 9 9 1024.0 - 0.0
26/08:00pm 18.0 12.6 1.1 32 7.5 S 19 22 10 12 1023.7 - 0.0
26/07:30pm 18.0 12.9 0.6 31 7.7 S 17 19 9 10 1023.6 - 0.0
26/07:00pm 18.4 14.2 1.4 32 7.6 SSW 13 13 7 7 1023.3 - 0.0
26/06:30pm 20.5 16.3 1.4 28 8.7 SSW 13 17 7 9 1023.0 - 0.0
26/06:00pm 21.5 17.6 1.2 26 9.3 - 11 13 6 7 1022.7 1022.7 0.0
26/05:30pm 22.9 19.3 0.7 23 10.2 S 9 15 5 8 1022.5 - 0.0
26/05:00pm 23.3 19.2 -0.2 21 10.6 SSW 11 15 6 8 1022.4 - 0.0
26/04:30pm 23.4 20.2 0.5 22 10.5 W 7 17 4 9 1022.2 - 0.0
26/04:00pm 23.8 19.9 1.4 23 10.5 W 11 20 6 11 1022.4 - 0.0
26/03:30pm 23.7 20.2 1.4 23 10.4 W 9 15 5 8 1022.6 - 0.0
26/03:00pm 23.4 19.2 1.7 24 10.2 WSW 13 17 7 9 1022.8 1022.8 0.0
26/02:30pm 23.4 19.2 1.7 24 10.2 WSW 13 20 7 11 1023.1 - 0.0
26/02:00pm 22.3 19.1 0.8 24 9.9 W 7 17 4 9 1023.5 - 0.0
26/01:30pm 22.0 18.1 1.1 25 9.6 W 11 15 6 8 1024.0 - 0.0
26/01:00pm 21.7 18.7 0.8 25 9.5 S 6 13 3 7 1024.5 - 0.0
26/12:30pm 21.1 17.5 0.9 26 9.2 N 9 13 5 7 1025.0 - 0.0
26/12:00pm 20.8 17.6 0.6 26 9.1 - 7 13 4 7 1025.6 1025.6 0.0
26/11:30am 20.4 17.3 0.3 26 9.0 NE 6 11 3 6 1026.2 - 0.0
26/11:00am 19.5 16.4 1.5 30 8.2 ENE 7 15 4 8 1026.6 - 0.0
26/10:30am 18.5 14.3 1.5 32 7.7 NE 13 17 7 9 1026.9 - 0.0
26/10:00am 17.6 13.8 2.0 35 7.0 NNE 11 17 6 9 1027.2 - 0.0
26/09:30am 15.8 12.2 0.8 36 6.5 ESE 9 13 5 7 1027.3 - 0.0
26/09:00am 14.4 10.2 1.7 42 5.5 SE 13 17 7 9 1027.3 1027.3 0.0
26/08:30am 11.9 7.6 1.0 47 4.6 SE 13 15 7 8 1027.3 - 0.0
26/08:00am 9.9 5.2 0.8 53 3.7 SE 15 20 8 11 1027.1 - 0.0
26/07:30am 8.4 4.0 0.4 57 3.2 SSE 13 15 7 8 1026.8 - 0.0
26/07:00am 6.8 2.4 0.5 64 2.5 S 13 15 7 8 1026.3 - 0.0
26/06:30am 6.1 2.4 -0.2 64 2.4 SSE 9 11 5 6 1026.0 - 0.0
26/06:00am 6.1 2.0 -0.4 63 2.5 SE 11 13 6 7 1025.6 1025.6 0.0
26/05:30am 6.7 1.8 -0.5 60 2.8 SSE 15 20 8 11 1025.6 - 0.0
26/05:00am 7.2 2.3 -0.5 58 3.0 SSE 15 17 8 9 1025.2 - 0.0
26/04:30am 6.6 2.1 -0.6 60 2.8 ESE 13 15 7 8 1025.2 - 0.0
26/04:00am 7.8 4.5 -0.2 57 3.1 S 7 9 4 5 1025.1 - 0.0
26/03:30am 8.5 4.8 -0.3 54 3.5 S 9 11 5 6 1025.1 - 0.0
26/03:00am 9.2 5.1 -0.4 51 3.8 S 11 13 6 7 1025.1 1025.1 0.0
26/02:30am 10.4 5.5 -0.4 47 4.3 S 15 17 8 9 1025.4 - 0.0
26/02:00am 9.9 6.2 0.0 50 4.0 SSE 9 11 5 6 1025.6 - 0.0
26/01:30am 10.8 7.4 -0.6 45 4.6 SE 7 9 4 5 1025.8 - 0.0
26/01:00am 11.3 7.9 -0.5 44 4.8 SE 7 11 4 6 1026.0 - 0.0
26/12:30am 12.6 9.1 -1.0 39 5.5 E 7 7 4 4 1026.2 - 0.0
26/12:00am 13.0 9.2 -1.0 38 5.6 E 9 11 5 6 1026.2 1026.2 0.0
 
Date/Time
CST
Temp
°C
App
Temp
°C
Dew
Point
Rel
Hum
%
Delta-T
°C
Wind Press
QNH
hPa
Press
MSL
hPa
Rain
since 9 am
mm
Dir
 
Spd
km/h
Gust
km/h
Spd
kts
Gust
kts
25/11:30pm 12.4 8.6 -0.8 40 5.3 ENE 9 13 5 7 1026.4 - 0.0
25/11:00pm 13.0 8.0 -1.3 37 5.8 E 15 17 8 9 1026.4 - 0.0
25/10:30pm 12.4 8.2 -1.1 39 5.4 SSE 11 13 6 7 1026.6 - 0.0
25/10:00pm 13.7 11.3 -0.3 38 5.8 SE 2 11 1 6 1026.6 - 0.0
25/09:30pm 14.7 10.5 -0.6 35 6.4 SSW 11 13 6 7 1026.6 - 0.0
25/09:00pm 15.6 10.7 -0.6 33 6.8 SSW 15 19 8 10 1026.6 1026.6 0.0
25/08:30pm 17.9 12.1 -1.3 27 8.1 S 19 22 10 12 1026.5 - 0.0
25/08:00pm 17.5 12.6 -0.7 29 7.8 SSW 15 19 8 10 1026.6 - 0.0
25/07:30pm 18.4 13.1 -0.9 27 8.3 SSW 17 19 9 10 1026.5 - 0.0
25/07:00pm 19.0 14.9 -0.4 27 8.4 SW 11 17 6 9 1026.3 - 0.0
25/06:30pm 20.3 16.5 -0.9 24 9.2 WSW 9 11 5 6 1026.0 - 0.0
25/06:00pm 21.8 17.5 -1.5 21 10.1 S 11 17 6 9 1025.9 1025.9 0.0
25/05:30pm 23.5 19.5 -2.2 18 11.2 S 9 15 5 8 1025.7 - 0.0
25/05:00pm 23.9 20.3 -1.8 18 11.4 E 7 13 4 7 1025.6 - 0.0
25/04:30pm 24.1 20.6 -1.7 18 11.4 SSE 7 13 4 7 1025.6 - 0.0
25/04:00pm 24.3 20.7 -2.3 17 11.7 SSE 7 15 4 8 1025.8 - 0.0
25/03:30pm 24.0 20.1 -1.8 18 11.4 ENE 9 17 5 9 1025.8 - 0.0
25/03:00pm 23.6 19.6 -2.1 18 11.2 - 9 15 5 8 1026.1 1026.1 0.0
25/02:30pm 23.5 20.3 -0.7 20 10.9 NNW 6 13 3 7 1026.4 - 0.0
25/02:00pm 23.3 20.0 -0.2 21 10.6 NE 7 11 4 6 1026.8 - 0.0
25/01:30pm 23.5 19.5 0.6 22 10.6 ESE 11 19 6 10 1027.1 - 0.0
25/01:00pm 22.7 19.7 0.5 23 10.1 ENE 6 13 3 7 1027.8 - 0.0
25/12:30pm 22.6 19.2 2.1 26 9.7 ENE 9 15 5 8 1028.3 - 0.0
25/12:00pm 21.7 18.7 1.9 27 9.2 NE 7 15 4 8 1029.0 1029.0 0.0
25/11:30am 21.2 17.8 2.0 28 8.9 NE 9 15 5 8 1029.5 - 0.0
25/11:00am 20.4 16.1 3.2 32 8.1 ENE 15 20 8 11 1030.0 - 0.0
25/10:30am 19.3 15.0 3.1 34 7.6 ENE 15 19 8 10 1030.5 - 0.0
25/10:00am 18.4 14.1 3.5 37 7.0 E 15 20 8 11 1030.6 - 0.0
25/09:30am 17.6 13.9 4.5 42 6.2 ESE 13 17 7 9 1030.7 - 0.0
25/09:00am 15.5 11.0 4.2 47 5.2 SE 17 20 9 11 1030.7 1030.7 0.0
25/08:30am 13.8 9.7 4.1 52 4.4 SE 15 19 8 10 1030.6 - 0.0
25/08:00am 12.0 7.9 4.2 59 3.5 SE 15 17 8 9 1030.2 - 0.0
25/07:30am 9.2 5.7 3.4 67 2.5 SSE 11 15 6 8 1030.0 - 0.0
25/07:00am 8.0 3.3 3.3 72 2.0 SSE 17 19 9 10 1029.5 - 0.0
25/06:30am 7.3 2.9 2.8 73 1.9 SSE 15 17 8 9 1029.2 - 0.0
25/06:00am 7.6 3.2 2.9 72 2.0 SSE 15 17 8 9 1028.9 1028.9 0.0
25/05:30am 7.6 3.6 2.7 71 2.1 SE 13 15 7 8 1028.6 - 0.0
25/05:00am 7.5 3.8 2.4 70 2.1 SE 11 15 6 8 1028.3 - 0.0
25/04:30am 8.2 4.6 2.9 69 2.2 S 11 13 6 7 1028.2 - 0.0
25/04:00am 9.6 6.4 3.1 64 2.8 SSE 9 11 5 6 1028.0 - 0.0
25/03:30am 10.5 7.0 3.5 62 3.1 S 11 13 6 7 1027.9 - 0.0
25/03:00am 10.2 6.7 3.5 63 2.9 S 11 13 6 7 1028.1 1028.1 0.0
25/02:30am 11.7 7.9 4.0 59 3.5 S 13 15 7 8 1028.3 - 0.0
25/02:00am 10.8 6.8 2.9 58 3.4 S 13 15 7 8 1028.3 - 0.0
25/01:30am 11.8 7.6 3.6 57 3.6 SSE 15 15 8 8 1028.4 - 0.0
25/01:00am 12.1 7.8 3.3 55 3.9 SSE 15 17 8 9 1028.6 - 0.0
25/12:30am 12.3 8.4 3.5 55 3.9 SSE 13 13 7 7 1028.5 - 0.0
25/12:00am 12.5 9.2 2.7 51 4.3 ESE 9 11 5 6 1028.5 1028.5 0.0
 
Date/Time
CST
Temp
°C
App
Temp
°C
Dew
Point
Rel
Hum
%
Delta-T
°C
Wind Press
QNH
hPa
Press
MSL
hPa
Rain
since 9 am
mm
Dir
 
Spd
km/h
Gust
km/h
Spd
kts
Gust
kts
24/11:30pm 13.0 9.3 2.3 48 4.7 SE 11 15 6 8 1028.5 - 0.0
24/11:00pm 14.5 10.5 2.7 45 5.3 SE 13 19 7 10 1028.5 - 0.0
24/10:30pm 14.5 10.7 1.8 42 5.6 SSE 11 13 6 7 1028.6 - 0.0
24/10:00pm 15.1 11.0 2.0 41 5.8 ESE 13 17 7 9 1028.6 - 0.0
24/09:30pm 17.1 11.5 1.5 35 6.9 ESE 20 26 11 14 1028.4 - 0.0
24/09:00pm 17.8 12.4 1.3 33 7.3 S 19 20 10 11 1027.8 1027.8 0.0
24/08:30pm 17.9 12.9 1.4 33 7.4 S 17 19 9 10 1027.7 - 0.0

Other Formats:

Comma delimited format used in spreadsheet applications
http://www.bom.gov.au/fwo/IDS60801/IDS60801.95480.axf

JavaScript Object Notation format (JSON) in row-major order
http://www.bom.gov.au/fwo/IDS60801/IDS60801.95480.json